GAS WBAK-WBSB
Flight info
| Callsign | GAS |
|---|---|
| Flight time | 1h 9m |
| Altitude | 7000 |
| Route | BRU |
| Aircraft | PC12/L-SDFGRWY/S |
Departure
| Time | 2026-04-23 03:27 |
|---|---|
| Airport | Anduki Airport (WBAK) |
Arrival
| Time | 2026-04-23 04:36 |
|---|---|
| Airport | Brunei International Airport (WBSB) |
| Time | Latitude | Longitude | Altitude | Speed | Heading |
|---|---|---|---|---|---|
| 2026-04-23 03:27 | 4.68238 | 114.48148 | 11235 ft | 166 kts | 62° |
| 2026-04-23 03:27 | 4.68828 | 114.49155 | 11892 ft | 169 kts | 62° |
| 2026-04-23 03:27 | 4.69427 | 114.50175 | 12554 ft | 171 kts | 62° |
| 2026-04-23 03:28 | 4.70031 | 114.51205 | 13216 ft | 173 kts | 62° |
| 2026-04-23 03:28 | 4.70643 | 114.52251 | 13852 ft | 175 kts | 61° |
| 2026-04-23 03:28 | 4.71263 | 114.53307 | 14425 ft | 177 kts | 61° |
| 2026-04-23 03:28 | 4.71880 | 114.54359 | 14995 ft | 178 kts | 62° |
| 2026-04-23 03:29 | 4.72510 | 114.55433 | 15571 ft | 179 kts | 61° |
| 2026-04-23 03:29 | 4.73141 | 114.56510 | 16162 ft | 180 kts | 60° |
| 2026-04-23 03:29 | 4.73779 | 114.57599 | 16726 ft | 182 kts | 60° |
| 2026-04-23 03:29 | 4.74570 | 114.58591 | 17282 ft | 185 kts | 41° |
| 2026-04-23 03:30 | 4.75545 | 114.59440 | 17853 ft | 186 kts | 49° |
| 2026-04-23 03:30 | 4.76263 | 114.60507 | 18402 ft | 186 kts | 65° |
| 2026-04-23 03:30 | 4.76647 | 114.61740 | 18889 ft | 187 kts | 81° |
| 2026-04-23 03:30 | 4.76714 | 114.63005 | 18579 ft | 188 kts | 94° |
| 2026-04-23 03:31 | 4.76437 | 114.64379 | 17583 ft | 215 kts | 108° |
| 2026-04-23 03:31 | 4.75768 | 114.65811 | 16408 ft | 239 kts | 121° |
| 2026-04-23 03:31 | 4.74717 | 114.67198 | 15073 ft | 261 kts | 133° |
| 2026-04-23 03:31 | 4.73403 | 114.68561 | 13620 ft | 283 kts | 126° |
| 2026-04-23 03:32 | 4.72808 | 114.70410 | 12628 ft | 280 kts | 92° |
| 2026-04-23 03:32 | 4.73291 | 114.72265 | 11635 ft | 279 kts | 60° |
| 2026-04-23 03:32 | 4.74638 | 114.73601 | 10691 ft | 277 kts | 36° |
| 2026-04-23 03:32 | 4.76230 | 114.74626 | 9766 ft | 274 kts | 34° |
| 2026-04-23 03:33 | 4.77767 | 114.75724 | 8783 ft | 269 kts | 40° |
| 2026-04-23 03:33 | 4.79133 | 114.76979 | 7999 ft | 263 kts | 48° |
| 2026-04-23 03:33 | 4.80230 | 114.78408 | 7454 ft | 255 kts | 60° |
| 2026-04-23 03:33 | 4.81030 | 114.79969 | 6908 ft | 252 kts | 67° |
| 2026-04-23 03:34 | 4.81759 | 114.81596 | 6284 ft | 257 kts | 67° |
| 2026-04-23 03:34 | 4.82532 | 114.83172 | 5588 ft | 252 kts | 65° |
| 2026-04-23 03:34 | 4.83355 | 114.84756 | 4837 ft | 257 kts | 64° |
| 2026-04-23 03:34 | 4.84227 | 114.86200 | 4860 ft | 234 kts | 52° |
| 2026-04-23 03:35 | 4.85398 | 114.87234 | 4828 ft | 223 kts | 34° |
| 2026-04-23 03:35 | 4.86656 | 114.88010 | 4879 ft | 202 kts | 34° |
| 2026-04-23 03:35 | 4.87805 | 114.88752 | 4718 ft | 185 kts | 35° |
| 2026-04-23 03:35 | 4.88899 | 114.89452 | 1963 ft | 258 kts | 31° |
| 2026-04-23 03:36 | 4.90559 | 114.90463 | 559 ft | 274 kts | 32° |
| 2026-04-23 03:36 | 4.91965 | 114.91373 | 239 ft | 194 kts | 32° |
| 2026-04-23 03:36 | 4.92832 | 114.91887 | 84 ft | 110 kts | 31° |
| 2026-04-23 03:36 | 4.93372 | 114.92208 | 32 ft | 77 kts | 27° |
| 2026-04-23 03:37 | 4.93782 | 114.92449 | 26 ft | 70 kts | 29° |
| 2026-04-23 03:37 | 4.94309 | 114.92768 | 179 ft | 100 kts | 27° |
| 2026-04-23 03:37 | 4.94955 | 114.93148 | 579 ft | 113 kts | 29° |
| 2026-04-23 03:37 | 4.95749 | 114.93611 | 831 ft | 154 kts | 30° |
| 2026-04-23 03:38 | 4.96700 | 114.94158 | 1650 ft | 149 kts | 29° |
| 2026-04-23 03:38 | 4.97573 | 114.94643 | 2586 ft | 145 kts | 29° |
| 2026-04-23 03:38 | 4.98480 | 114.95136 | 3324 ft | 153 kts | 29° |
| 2026-04-23 03:38 | 4.99487 | 114.95679 | 3829 ft | 179 kts | 29° |
| 2026-04-23 03:39 | 5.00670 | 114.96319 | 4008 ft | 213 kts | 29° |
| 2026-04-23 03:39 | 5.02052 | 114.97072 | 4013 ft | 236 kts | 29° |
| 2026-04-23 03:39 | 5.03526 | 114.97875 | 4004 ft | 245 kts | 29° |
| 2026-04-23 03:39 | 5.05038 | 114.98699 | 4006 ft | 248 kts | 29° |
| 2026-04-23 03:40 | 5.06666 | 114.99213 | 3981 ft | 250 kts | 1° |
| 2026-04-23 03:40 | 5.08285 | 114.98659 | 3981 ft | 250 kts | 322° |
| 2026-04-23 03:40 | 5.09230 | 114.97238 | 3983 ft | 248 kts | 285° |
| 2026-04-23 03:40 | 5.09434 | 114.95539 | 3984 ft | 246 kts | 263° |
| 2026-04-23 03:41 | 5.08817 | 114.93995 | 3983 ft | 243 kts | 234° |
| 2026-04-23 03:41 | 5.07778 | 114.92660 | 4001 ft | 243 kts | 229° |
| 2026-04-23 03:41 | 5.06693 | 114.91353 | 4001 ft | 244 kts | 229° |
| 2026-04-23 03:41 | 5.05615 | 114.90036 | 3980 ft | 244 kts | 230° |
| 2026-04-23 03:42 | 5.04552 | 114.88711 | 3975 ft | 244 kts | 230° |
| 2026-04-23 03:42 | 5.03503 | 114.87376 | 3981 ft | 244 kts | 231° |
| 2026-04-23 03:42 | 5.02465 | 114.86032 | 3974 ft | 244 kts | 231° |
| 2026-04-23 03:42 | 5.01442 | 114.84678 | 3982 ft | 243 kts | 232° |
| 2026-04-23 03:43 | 5.00432 | 114.83317 | 3985 ft | 243 kts | 232° |
| 2026-04-23 03:43 | 4.99447 | 114.81962 | 3994 ft | 244 kts | 233° |
| 2026-04-23 03:43 | 4.98462 | 114.80580 | 4006 ft | 244 kts | 233° |
| 2026-04-23 03:43 | 4.97490 | 114.79188 | 4117 ft | 244 kts | 234° |
| 2026-04-23 03:44 | 4.96530 | 114.77785 | 4122 ft | 244 kts | 234° |
| 2026-04-23 03:44 | 4.95585 | 114.76376 | 4120 ft | 244 kts | 235° |
| 2026-04-23 03:44 | 4.94649 | 114.74952 | 4135 ft | 244 kts | 236° |
| 2026-04-23 03:44 | 4.93730 | 114.73525 | 4131 ft | 244 kts | 236° |
| 2026-04-23 03:45 | 4.92823 | 114.72085 | 4124 ft | 244 kts | 237° |
| 2026-04-23 03:45 | 4.91940 | 114.70656 | 4120 ft | 244 kts | 237° |
| 2026-04-23 03:45 | 4.91059 | 114.69198 | 4117 ft | 244 kts | 238° |
| 2026-04-23 03:45 | 4.90192 | 114.67731 | 4117 ft | 245 kts | 238° |
| 2026-04-23 03:46 | 4.89339 | 114.66259 | 4123 ft | 245 kts | 239° |
| 2026-04-23 03:46 | 4.88498 | 114.64774 | 4134 ft | 245 kts | 239° |
| 2026-04-23 03:46 | 4.87671 | 114.63283 | 4142 ft | 245 kts | 240° |
| 2026-04-23 03:46 | 4.86859 | 114.61784 | 4153 ft | 245 kts | 240° |
| 2026-04-23 03:47 | 4.86059 | 114.60275 | 4159 ft | 245 kts | 241° |
| 2026-04-23 03:47 | 4.85276 | 114.58762 | 4169 ft | 245 kts | 241° |
| 2026-04-23 03:47 | 4.84510 | 114.57250 | 4038 ft | 249 kts | 242° |
| 2026-04-23 03:47 | 4.83731 | 114.55680 | 3750 ft | 253 kts | 242° |
| 2026-04-23 03:48 | 4.82958 | 114.54087 | 3423 ft | 254 kts | 243° |
| 2026-04-23 03:48 | 4.82199 | 114.52485 | 3088 ft | 254 kts | 243° |
| 2026-04-23 03:48 | 4.81197 | 114.51067 | 2704 ft | 250 kts | 217° |
| 2026-04-23 03:48 | 4.79608 | 114.50457 | 2513 ft | 243 kts | 189° |
| 2026-04-23 03:49 | 4.77994 | 114.50053 | 2515 ft | 238 kts | 196° |
| 2026-04-23 03:49 | 4.76445 | 114.49544 | 2490 ft | 239 kts | 201° |
| 2026-04-23 03:49 | 4.74954 | 114.48793 | 2348 ft | 241 kts | 210° |
| 2026-04-23 03:49 | 4.73522 | 114.47908 | 2195 ft | 242 kts | 211° |
| 2026-04-23 03:50 | 4.72071 | 114.47044 | 2038 ft | 242 kts | 210° |
| 2026-04-23 03:50 | 4.70604 | 114.46212 | 1879 ft | 242 kts | 210° |
| 2026-04-23 03:50 | 4.69141 | 114.45374 | 1720 ft | 242 kts | 212° |
| 2026-04-23 03:50 | 4.67928 | 114.44223 | 1458 ft | 243 kts | 234° |
| 2026-04-23 03:51 | 4.66983 | 114.42840 | 1000 ft | 223 kts | 236° |
| 2026-04-23 03:51 | 4.66153 | 114.41639 | 688 ft | 192 kts | 236° |
| 2026-04-23 03:51 | 4.65480 | 114.40678 | 516 ft | 148 kts | 236° |
| 2026-04-23 03:51 | 4.65001 | 114.39998 | 392 ft | 99 kts | 236° |
| 2026-04-23 03:52 | 4.64633 | 114.39470 | 265 ft | 91 kts | 237° |
| 2026-04-23 03:52 | 4.64268 | 114.38955 | 186 ft | 90 kts | 234° |
| 2026-04-23 03:52 | 4.63919 | 114.38442 | 94 ft | 87 kts | 238° |
| 2026-04-23 03:52 | 4.63590 | 114.37978 | 12 ft | 75 kts | 234° |
| 2026-04-23 03:53 | 4.63240 | 114.37489 | 172 ft | 97 kts | 233° |
| 2026-04-23 03:53 | 4.62732 | 114.36830 | 502 ft | 136 kts | 232° |
| 2026-04-23 03:53 | 4.62110 | 114.36090 | 1251 ft | 141 kts | 228° |
| 2026-04-23 03:53 | 4.61486 | 114.35348 | 2114 ft | 138 kts | 234° |
| 2026-04-23 03:54 | 4.60991 | 114.34587 | 3016 ft | 133 kts | 236° |
| 2026-04-23 03:54 | 4.60554 | 114.33759 | 3818 ft | 131 kts | 242° |
| 2026-04-23 03:54 | 4.60196 | 114.32987 | 4823 ft | 109 kts | 237° |
| 2026-04-23 03:54 | 4.59682 | 114.32389 | 5347 ft | 131 kts | 209° |
| 2026-04-23 03:55 | 4.58772 | 114.32251 | 6032 ft | 129 kts | 159° |
| 2026-04-23 03:55 | 4.58326 | 114.32934 | 6739 ft | 142 kts | 85° |
| 2026-04-23 03:55 | 4.59149 | 114.33637 | 6994 ft | 184 kts | 358° |
| 2026-04-23 03:55 | 4.59845 | 114.32868 | 7977 ft | 167 kts | 256° |
| 2026-04-23 03:56 | 4.58856 | 114.32445 | 8069 ft | 200 kts | 145° |
| 2026-04-23 03:56 | 4.58916 | 114.33557 | 9055 ft | 193 kts | 25° |
| 2026-04-23 03:56 | 4.60117 | 114.33465 | 10205 ft | 168 kts | 327° |
| 2026-04-23 03:56 | 4.60810 | 114.32548 | 10937 ft | 170 kts | 284° |
| 2026-04-23 03:57 | 4.60730 | 114.31386 | 11600 ft | 173 kts | 242° |
| 2026-04-23 03:57 | 4.59891 | 114.30464 | 11993 ft | 194 kts | 215° |
| 2026-04-23 03:57 | 4.58697 | 114.29597 | 12027 ft | 228 kts | 214° |
| 2026-04-23 03:57 | 4.57344 | 114.28615 | 12022 ft | 249 kts | 215° |
| 2026-04-23 03:58 | 4.55945 | 114.27568 | 12019 ft | 259 kts | 215° |
| 2026-04-23 03:58 | 4.54487 | 114.26472 | 12010 ft | 264 kts | 215° |
| 2026-04-23 03:58 | 4.53011 | 114.25369 | 12007 ft | 265 kts | 215° |
| 2026-04-23 03:58 | 4.51531 | 114.24265 | 11981 ft | 263 kts | 215° |
| 2026-04-23 03:59 | 4.50074 | 114.23178 | 11950 ft | 260 kts | 215° |
| 2026-04-23 03:59 | 4.48625 | 114.22096 | 11915 ft | 260 kts | 215° |
| 2026-04-23 03:59 | 4.47177 | 114.21015 | 11875 ft | 259 kts | 215° |
| 2026-04-23 03:59 | 4.45730 | 114.19935 | 11843 ft | 259 kts | 215° |
| 2026-04-23 04:00 | 4.44304 | 114.18871 | 11803 ft | 259 kts | 215° |
| 2026-04-23 04:00 | 4.42844 | 114.17819 | 11763 ft | 258 kts | 210° |
| 2026-04-23 04:00 | 4.41250 | 114.17009 | 11720 ft | 257 kts | 204° |
| 2026-04-23 04:00 | 4.39648 | 114.16211 | 11684 ft | 257 kts | 205° |
| 2026-04-23 04:01 | 4.38051 | 114.15402 | 11651 ft | 257 kts | 205° |
| 2026-04-23 04:01 | 4.36450 | 114.14597 | 11540 ft | 260 kts | 205° |
| 2026-04-23 04:01 | 4.34815 | 114.13779 | 11254 ft | 265 kts | 205° |
| 2026-04-23 04:01 | 4.33155 | 114.12946 | 10910 ft | 268 kts | 205° |
| 2026-04-23 04:02 | 4.31511 | 114.12121 | 10562 ft | 269 kts | 205° |
| 2026-04-23 04:02 | 4.29839 | 114.11282 | 10205 ft | 269 kts | 205° |
| 2026-04-23 04:02 | 4.28171 | 114.10445 | 9849 ft | 268 kts | 205° |
| 2026-04-23 04:02 | 4.26508 | 114.09611 | 9473 ft | 266 kts | 205° |
| 2026-04-23 04:03 | 4.24858 | 114.08784 | 9116 ft | 264 kts | 205° |
| 2026-04-23 04:03 | 4.23216 | 114.07961 | 8766 ft | 263 kts | 205° |
| 2026-04-23 04:03 | 4.21584 | 114.07142 | 8421 ft | 262 kts | 205° |
| 2026-04-23 04:03 | 4.19959 | 114.06328 | 8081 ft | 260 kts | 205° |
| 2026-04-23 04:04 | 4.18890 | 114.05792 | 7848 ft | 260 kts | 205° |
| 2026-04-23 04:04 | 4.16755 | 114.04721 | 7404 ft | 258 kts | 205° |
| 2026-04-23 04:04 | 4.15156 | 114.03919 | 7061 ft | 257 kts | 205° |
| 2026-04-23 04:04 | 4.13560 | 114.03119 | 6715 ft | 256 kts | 205° |
| 2026-04-23 04:05 | 4.11977 | 114.02299 | 6261 ft | 256 kts | 211° |
| 2026-04-23 04:05 | 4.10809 | 114.00980 | 5858 ft | 255 kts | 239° |
| 2026-04-23 04:05 | 4.10384 | 113.99936 | 5632 ft | 229 kts | 254° |
| 2026-04-23 04:05 | 4.10267 | 113.98402 | 5332 ft | 218 kts | 274° |
| 2026-04-23 04:06 | 4.10667 | 113.96954 | 5057 ft | 216 kts | 292° |
| 2026-04-23 04:06 | 4.11457 | 113.95127 | 4690 ft | 215 kts | 292° |
| 2026-04-23 04:06 | 4.12040 | 113.93749 | 4388 ft | 215 kts | 292° |
| 2026-04-23 04:06 | 4.12662 | 113.92390 | 4024 ft | 215 kts | 303° |
| 2026-04-23 04:07 | 4.13366 | 113.91702 | 3811 ft | 214 kts | 325° |
| 2026-04-23 04:07 | 4.14717 | 113.91146 | 3523 ft | 210 kts | 351° |
| 2026-04-23 04:07 | 4.16153 | 113.91247 | 3246 ft | 207 kts | 18° |
| 2026-04-23 04:07 | 4.17459 | 113.91826 | 2978 ft | 205 kts | 27° |
| 2026-04-23 04:08 | 4.18746 | 113.92442 | 2702 ft | 206 kts | 25° |
| 2026-04-23 04:08 | 4.20028 | 113.93041 | 2423 ft | 190 kts | 26° |
| 2026-04-23 04:08 | 4.21430 | 113.93690 | 2067 ft | 151 kts | 25° |
| 2026-04-23 04:08 | 4.22388 | 113.94117 | 1891 ft | 149 kts | 24° |
| 2026-04-23 04:09 | 4.22978 | 113.94390 | 1759 ft | 131 kts | 25° |
| 2026-04-23 04:09 | 4.23761 | 113.94756 | 1600 ft | 120 kts | 25° |
| 2026-04-23 04:09 | 4.24506 | 113.95103 | 1446 ft | 117 kts | 25° |
| 2026-04-23 04:09 | 4.25232 | 113.95441 | 1311 ft | 112 kts | 25° |
| 2026-04-23 04:10 | 4.25895 | 113.95752 | 1164 ft | 100 kts | 24° |
| 2026-04-23 04:10 | 4.26500 | 113.96034 | 1043 ft | 93 kts | 23° |
| 2026-04-23 04:10 | 4.27076 | 113.96302 | 939 ft | 91 kts | 22° |
| 2026-04-23 04:10 | 4.27671 | 113.96578 | 831 ft | 96 kts | 22° |
| 2026-04-23 04:11 | 4.28265 | 113.96856 | 710 ft | 92 kts | 22° |
| 2026-04-23 04:11 | 4.28846 | 113.97122 | 598 ft | 98 kts | 18° |
| 2026-04-23 04:11 | 4.29492 | 113.97448 | 542 ft | 109 kts | 27° |
| 2026-04-23 04:11 | 4.30128 | 113.97758 | 455 ft | 95 kts | 20° |
| 2026-04-23 04:12 | 4.30707 | 113.98018 | 300 ft | 89 kts | 19° |
| 2026-04-23 04:12 | 4.31281 | 113.98271 | 111 ft | 88 kts | 18° |
| 2026-04-23 04:12 | 4.31784 | 113.98511 | 59 ft | 71 kts | 24° |
| 2026-04-23 04:12 | 4.32336 | 113.98747 | 254 ft | 93 kts | 21° |
| 2026-04-23 04:13 | 4.32965 | 113.99011 | 717 ft | 114 kts | 16° |
| 2026-04-23 04:13 | 4.33880 | 113.99302 | 1095 ft | 146 kts | 16° |
| 2026-04-23 04:13 | 4.34813 | 113.99575 | 2042 ft | 142 kts | 15° |
| 2026-04-23 04:13 | 4.35800 | 113.99846 | 2800 ft | 151 kts | 15° |
| 2026-04-23 04:14 | 4.36813 | 114.00112 | 3652 ft | 151 kts | 16° |
| 2026-04-23 04:14 | 4.37848 | 114.00368 | 4490 ft | 154 kts | 15° |
| 2026-04-23 04:14 | 4.38902 | 114.00626 | 5288 ft | 158 kts | 15° |
| 2026-04-23 04:14 | 4.39975 | 114.00882 | 6100 ft | 160 kts | 15° |
| 2026-04-23 04:15 | 4.41060 | 114.01143 | 6879 ft | 162 kts | 15° |
| 2026-04-23 04:15 | 4.42145 | 114.01402 | 7637 ft | 163 kts | 15° |
| 2026-04-23 04:15 | 4.44377 | 114.01944 | 9180 ft | 167 kts | 15° |
| 2026-04-23 04:16 | 4.45515 | 114.02220 | 9936 ft | 169 kts | 15° |
| 2026-04-23 04:16 | 4.46682 | 114.02496 | 10561 ft | 178 kts | 15° |
| 2026-04-23 04:16 | 4.47963 | 114.02795 | 10942 ft | 201 kts | 14° |
| 2026-04-23 04:16 | 4.49434 | 114.03141 | 10993 ft | 233 kts | 14° |
| 2026-04-23 04:17 | 4.51079 | 114.03533 | 10994 ft | 251 kts | 14° |
| 2026-04-23 04:17 | 4.52809 | 114.03949 | 10994 ft | 259 kts | 14° |
| 2026-04-23 04:17 | 4.54553 | 114.04371 | 10990 ft | 262 kts | 14° |
| 2026-04-23 04:17 | 4.56334 | 114.04802 | 10993 ft | 264 kts | 14° |
| 2026-04-23 04:18 | 4.58119 | 114.05235 | 10991 ft | 264 kts | 14° |
| 2026-04-23 04:18 | 4.59898 | 114.05695 | 10994 ft | 263 kts | 19° |
| 2026-04-23 04:18 | 4.61366 | 114.06722 | 10978 ft | 260 kts | 54° |
| 2026-04-23 04:18 | 4.62156 | 114.08322 | 10986 ft | 256 kts | 71° |
| 2026-04-23 04:19 | 4.62745 | 114.10008 | 10992 ft | 256 kts | 73° |
| 2026-04-23 04:19 | 4.63304 | 114.11703 | 10991 ft | 257 kts | 73° |
| 2026-04-23 04:19 | 4.64035 | 114.13326 | 10960 ft | 259 kts | 53° |
| 2026-04-23 04:19 | 4.65494 | 114.14346 | 10922 ft | 263 kts | 24° |
| 2026-04-23 04:20 | 4.67191 | 114.15027 | 10924 ft | 262 kts | 25° |
| 2026-04-23 04:20 | 4.68848 | 114.15789 | 10926 ft | 262 kts | 26° |
| 2026-04-23 04:20 | 4.70502 | 114.16561 | 10925 ft | 262 kts | 26° |
| 2026-04-23 04:20 | 4.72155 | 114.17334 | 10923 ft | 262 kts | 26° |
| 2026-04-23 04:21 | 4.73806 | 114.18105 | 10920 ft | 262 kts | 26° |
| 2026-04-23 04:21 | 4.75405 | 114.18973 | 10892 ft | 260 kts | 41° |
| 2026-04-23 04:21 | 4.76394 | 114.20455 | 10855 ft | 257 kts | 69° |
| 2026-04-23 04:21 | 4.76982 | 114.22118 | 10856 ft | 256 kts | 73° |
| 2026-04-23 04:22 | 4.77518 | 114.23822 | 10851 ft | 256 kts | 74° |
| 2026-04-23 04:22 | 4.78042 | 114.25530 | 10851 ft | 256 kts | 75° |
| 2026-04-23 04:22 | 4.78559 | 114.27240 | 10851 ft | 256 kts | 75° |
| 2026-04-23 04:22 | 4.79066 | 114.28953 | 10824 ft | 255 kts | 75° |
| 2026-04-23 04:23 | 4.79559 | 114.30628 | 9543 ft | 259 kts | 76° |
| 2026-04-23 04:23 | 4.79922 | 114.32442 | 8349 ft | 264 kts | 85° |
| 2026-04-23 04:23 | 4.79976 | 114.34233 | 7398 ft | 257 kts | 92° |
| 2026-04-23 04:23 | 4.79931 | 114.36002 | 6483 ft | 252 kts | 93° |
| 2026-04-23 04:24 | 4.79871 | 114.37739 | 5549 ft | 247 kts | 94° |
| 2026-04-23 04:24 | 4.79812 | 114.39444 | 4638 ft | 242 kts | 93° |
| 2026-04-23 04:24 | 4.79752 | 114.41106 | 3746 ft | 233 kts | 94° |
| 2026-04-23 04:24 | 4.79698 | 114.42643 | 3155 ft | 212 kts | 94° |
| 2026-04-23 04:25 | 4.79649 | 114.44157 | 2992 ft | 221 kts | 93° |
| 2026-04-23 04:25 | 4.79600 | 114.45738 | 2999 ft | 232 kts | 94° |
| 2026-04-23 04:25 | 4.79541 | 114.47367 | 2998 ft | 234 kts | 93° |
| 2026-04-23 04:25 | 4.79626 | 114.49001 | 2995 ft | 236 kts | 82° |
| 2026-04-23 04:26 | 4.79936 | 114.50600 | 2995 ft | 237 kts | 80° |
| 2026-04-23 04:26 | 4.80278 | 114.52222 | 2990 ft | 238 kts | 80° |
| 2026-04-23 04:26 | 4.80612 | 114.53842 | 3000 ft | 237 kts | 79° |
| 2026-04-23 04:26 | 4.80945 | 114.55462 | 3004 ft | 237 kts | 80° |
| 2026-04-23 04:27 | 4.81281 | 114.57084 | 2999 ft | 237 kts | 79° |
| 2026-04-23 04:27 | 4.81486 | 114.58715 | 3001 ft | 235 kts | 89° |
| 2026-04-23 04:27 | 4.81505 | 114.60354 | 3001 ft | 236 kts | 92° |
| 2026-04-23 04:28 | 4.81516 | 114.63614 | 3006 ft | 235 kts | 90° |
| 2026-04-23 04:28 | 4.81520 | 114.65256 | 2997 ft | 236 kts | 91° |
| 2026-04-23 04:28 | 4.81515 | 114.66904 | 2997 ft | 237 kts | 91° |
| 2026-04-23 04:28 | 4.81507 | 114.68550 | 2997 ft | 236 kts | 91° |
| 2026-04-23 04:29 | 4.81513 | 114.70193 | 2998 ft | 236 kts | 91° |
| 2026-04-23 04:29 | 4.81486 | 114.71834 | 2998 ft | 236 kts | 92° |
| 2026-04-23 04:29 | 4.81425 | 114.73477 | 2997 ft | 235 kts | 94° |
| 2026-04-23 04:29 | 4.81364 | 114.75118 | 2998 ft | 236 kts | 94° |
| 2026-04-23 04:30 | 4.81312 | 114.76714 | 2992 ft | 225 kts | 92° |
| 2026-04-23 04:30 | 4.81260 | 114.78226 | 2994 ft | 209 kts | 94° |
| 2026-04-23 04:30 | 4.81213 | 114.79628 | 2987 ft | 193 kts | 94° |
| 2026-04-23 04:30 | 4.81174 | 114.80900 | 2988 ft | 173 kts | 93° |
| 2026-04-23 04:31 | 4.81142 | 114.82068 | 2980 ft | 162 kts | 94° |
| 2026-04-23 04:31 | 4.81122 | 114.83183 | 2992 ft | 158 kts | 93° |
| 2026-04-23 04:31 | 4.81100 | 114.84240 | 2481 ft | 157 kts | 92° |
| 2026-04-23 04:31 | 4.81468 | 114.85254 | 2059 ft | 159 kts | 44° |
| 2026-04-23 04:32 | 4.82306 | 114.85825 | 1970 ft | 136 kts | 31° |
| 2026-04-23 04:32 | 4.83177 | 114.86361 | 1984 ft | 157 kts | 31° |
| 2026-04-23 04:32 | 4.84141 | 114.86926 | 2003 ft | 163 kts | 28° |
| 2026-04-23 04:32 | 4.85031 | 114.87363 | 1977 ft | 128 kts | 28° |
| 2026-04-23 04:33 | 4.85817 | 114.87722 | 1838 ft | 123 kts | 24° |
| 2026-04-23 04:33 | 4.86580 | 114.88102 | 1633 ft | 125 kts | 27° |
| 2026-04-23 04:33 | 4.87350 | 114.88541 | 1506 ft | 136 kts | 31° |
| 2026-04-23 04:33 | 4.88191 | 114.89060 | 1555 ft | 144 kts | 31° |
| 2026-04-23 04:34 | 4.89058 | 114.89596 | 1561 ft | 150 kts | 32° |
| 2026-04-23 04:34 | 4.89933 | 114.90138 | 1378 ft | 137 kts | 31° |
| 2026-04-23 04:34 | 4.90647 | 114.90557 | 986 ft | 103 kts | 30° |
| 2026-04-23 04:34 | 4.91230 | 114.90918 | 640 ft | 95 kts | 31° |
| 2026-04-23 04:35 | 4.91779 | 114.91257 | 398 ft | 92 kts | 30° |
| 2026-04-23 04:35 | 4.92343 | 114.91591 | 224 ft | 93 kts | 28° |
| 2026-04-23 04:35 | 4.92866 | 114.91904 | 87 ft | 83 kts | 27° |
| 2026-04-23 04:35 | 4.93338 | 114.92186 | 27 ft | 73 kts | 27° |
| 2026-04-23 04:36 | 4.93729 | 114.92417 | 25 ft | 60 kts | 30° |
| 2026-04-23 04:36 | 4.93034 | 114.91998 | 11 ft | 0 kts | 31° |
| 2026-04-23 04:37 | 4.93038 | 114.92000 | 11 ft | 10 kts | 35° |
| 2026-04-23 04:37 | 4.93309 | 114.92166 | 18 ft | 79 kts | 30° |
| 2026-04-23 04:37 | 4.93929 | 114.92538 | 94 ft | 121 kts | 31° |
| 2026-04-23 04:37 | 4.94692 | 114.93001 | 619 ft | 127 kts | 24° |
| 2026-04-23 04:38 | 4.95472 | 114.93281 | 1357 ft | 120 kts | 15° |
| 2026-04-23 04:38 | 4.96314 | 114.93468 | 1959 ft | 122 kts | 10° |
| 2026-04-23 04:38 | 4.97165 | 114.93654 | 2448 ft | 139 kts | 13° |
| 2026-04-23 04:38 | 4.98238 | 114.93855 | 2752 ft | 161 kts | 9° |
| 2026-04-23 04:39 | 4.99223 | 114.93954 | 3751 ft | 132 kts | 3° |
| 2026-04-23 04:39 | 5.00211 | 114.93886 | 4120 ft | 160 kts | 350° |
| 2026-04-23 04:39 | 5.01304 | 114.93512 | 4679 ft | 159 kts | 332° |
| 2026-04-23 04:39 | 5.02126 | 114.92917 | 5543 ft | 144 kts | 313° |
| 2026-04-23 04:40 | 5.02716 | 114.91995 | 5836 ft | 172 kts | 290° |
| 2026-04-23 04:40 | 5.02952 | 114.90868 | 6615 ft | 152 kts | 269° |
| 2026-04-23 04:40 | 5.02786 | 114.89849 | 7165 ft | 164 kts | 247° |
| 2026-04-23 04:40 | 5.02081 | 114.88673 | 6813 ft | 221 kts | 227° |
| 2026-04-23 04:41 | 5.01037 | 114.87750 | 7912 ft | 175 kts | 210° |
| 2026-04-23 04:41 | 5.00021 | 114.87316 | 9057 ft | 159 kts | 190° |
| 2026-04-23 04:41 | 4.98769 | 114.87318 | 8955 ft | 207 kts | 168° |
| 2026-04-23 04:41 | 4.97412 | 114.87854 | 9548 ft | 198 kts | 148° |
| 2026-04-23 04:42 | 4.96477 | 114.88679 | 10726 ft | 169 kts | 128° |
| 2026-04-23 04:42 | 4.95917 | 114.89784 | 11067 ft | 197 kts | 108° |
| 2026-04-23 04:42 | 4.95768 | 114.91248 | 11290 ft | 217 kts | 88° |
| 2026-04-23 04:42 | 4.96094 | 114.92635 | 12281 ft | 193 kts | 69° |
| 2026-04-23 04:43 | 4.96807 | 114.93763 | 12957 ft | 199 kts | 50° |
| 2026-04-23 04:43 | 4.97966 | 114.94686 | 13104 ft | 225 kts | 31° |
| 2026-04-23 04:43 | 4.99411 | 114.95112 | 13797 ft | 214 kts | 356° |
| 2026-04-23 04:43 | 5.00599 | 114.94467 | 14748 ft | 188 kts | 303° |
| 2026-04-23 04:44 | 5.00791 | 114.93265 | 15480 ft | 177 kts | 249° |
| 2026-04-23 04:44 | 5.00014 | 114.92313 | 15904 ft | 186 kts | 221° |
| 2026-04-23 04:44 | 4.98852 | 114.91578 | 15988 ft | 213 kts | 203° |
| 2026-04-23 04:44 | 4.97526 | 114.90763 | 15987 ft | 237 kts | 226° |
| 2026-04-23 04:45 | 4.96608 | 114.89332 | 15989 ft | 251 kts | 240° |
| 2026-04-23 04:45 | 4.95674 | 114.87816 | 15981 ft | 259 kts | 234° |
| 2026-04-23 04:45 | 4.94576 | 114.86405 | 15984 ft | 261 kts | 229° |
| 2026-04-23 04:45 | 4.93405 | 114.85003 | 15982 ft | 264 kts | 229° |
| 2026-04-23 04:46 | 4.92243 | 114.83545 | 15977 ft | 271 kts | 231° |
| 2026-04-23 04:46 | 4.91075 | 114.82042 | 15982 ft | 275 kts | 232° |
| 2026-04-23 04:46 | 4.89899 | 114.80538 | 15967 ft | 273 kts | 230° |
| 2026-04-23 04:46 | 4.88720 | 114.79048 | 15976 ft | 274 kts | 231° |
| 2026-04-23 04:47 | 4.87538 | 114.77551 | 16001 ft | 271 kts | 231° |
| 2026-04-23 04:47 | 4.86418 | 114.76126 | 16595 ft | 248 kts | 231° |
| 2026-04-23 04:47 | 4.85414 | 114.74854 | 17450 ft | 223 kts | 231° |
| 2026-04-23 04:47 | 4.84520 | 114.73722 | 18379 ft | 199 kts | 231° |
| 2026-04-23 04:48 | 4.83668 | 114.72646 | 18963 ft | 198 kts | 230° |
| 2026-04-23 04:48 | 4.82813 | 114.71561 | 19536 ft | 199 kts | 230° |
| 2026-04-23 04:48 | 4.81950 | 114.70464 | 20016 ft | 204 kts | 230° |
| 2026-04-23 04:48 | 4.81012 | 114.69277 | 20074 ft | 229 kts | 230° |
| 2026-04-23 04:49 | 4.79986 | 114.67972 | 20106 ft | 247 kts | 230° |
| 2026-04-23 04:49 | 4.78902 | 114.66591 | 20103 ft | 251 kts | 230° |
| 2026-04-23 04:49 | 4.77796 | 114.65189 | 20117 ft | 262 kts | 230° |
| 2026-04-23 04:49 | 4.76663 | 114.63754 | 20117 ft | 269 kts | 230° |
| 2026-04-23 04:50 | 4.75493 | 114.62271 | 20116 ft | 273 kts | 230° |
| 2026-04-23 04:50 | 4.74312 | 114.60775 | 20139 ft | 274 kts | 231° |
| 2026-04-23 04:50 | 4.73129 | 114.59273 | 20162 ft | 275 kts | 230° |
| 2026-04-23 04:50 | 4.71944 | 114.57770 | 20193 ft | 275 kts | 230° |
| 2026-04-23 04:51 | 4.70755 | 114.56262 | 20188 ft | 276 kts | 231° |
| 2026-04-23 04:51 | 4.69563 | 114.54750 | 20185 ft | 277 kts | 230° |
| 2026-04-23 04:51 | 4.68370 | 114.53237 | 20185 ft | 277 kts | 230° |
| 2026-04-23 04:51 | 4.67174 | 114.51720 | 20180 ft | 277 kts | 231° |
| 2026-04-23 04:52 | 4.65968 | 114.50213 | 20174 ft | 277 kts | 229° |
| 2026-04-23 04:52 | 4.64738 | 114.48729 | 20174 ft | 277 kts | 230° |
| 2026-04-23 04:52 | 4.63544 | 114.47246 | 20170 ft | 277 kts | 230° |
| 2026-04-23 04:52 | 4.62328 | 114.45747 | 20162 ft | 277 kts | 229° |
| 2026-04-23 04:53 | 4.61102 | 114.44254 | 20160 ft | 277 kts | 229° |
| 2026-04-23 04:53 | 4.59878 | 114.42760 | 20158 ft | 277 kts | 230° |
| 2026-04-23 04:53 | 4.58656 | 114.41265 | 20120 ft | 278 kts | 229° |
| 2026-04-23 04:53 | 4.57413 | 114.39745 | 19828 ft | 287 kts | 229° |
| 2026-04-23 04:54 | 4.56134 | 114.38181 | 19470 ft | 292 kts | 230° |
| 2026-04-23 04:54 | 4.54847 | 114.36607 | 19097 ft | 293 kts | 230° |
| 2026-04-23 04:54 | 4.53552 | 114.35022 | 18677 ft | 294 kts | 230° |
| 2026-04-23 04:54 | 4.52272 | 114.33458 | 18274 ft | 294 kts | 230° |
| 2026-04-23 04:55 | 4.50980 | 114.31880 | 17865 ft | 292 kts | 230° |
| 2026-04-23 04:55 | 4.49697 | 114.30311 | 17468 ft | 290 kts | 230° |
| 2026-04-23 04:55 | 4.48421 | 114.28752 | 17077 ft | 289 kts | 230° |
| 2026-04-23 04:55 | 4.47148 | 114.27197 | 16696 ft | 288 kts | 230° |
| 2026-04-23 04:56 | 4.45884 | 114.25651 | 16318 ft | 287 kts | 230° |
| 2026-04-23 04:56 | 4.44623 | 114.24111 | 15941 ft | 285 kts | 230° |
| 2026-04-23 04:56 | 4.43367 | 114.22577 | 15559 ft | 284 kts | 230° |
| 2026-04-23 04:56 | 4.42115 | 114.21047 | 15185 ft | 283 kts | 229° |
| 2026-04-23 04:57 | 4.40900 | 114.19527 | 14807 ft | 283 kts | 233° |
| 2026-04-23 04:57 | 4.39961 | 114.17797 | 14444 ft | 283 kts | 243° |
| 2026-04-23 04:57 | 4.39116 | 114.16019 | 14073 ft | 282 kts | 243° |
| 2026-04-23 04:57 | 4.38255 | 114.14253 | 13703 ft | 282 kts | 243° |
| 2026-04-23 04:58 | 4.37397 | 114.12490 | 13298 ft | 281 kts | 243° |
| 2026-04-23 04:58 | 4.36551 | 114.10736 | 12922 ft | 280 kts | 243° |
| 2026-04-23 04:58 | 4.35707 | 114.08984 | 12551 ft | 279 kts | 242° |
| 2026-04-23 04:58 | 4.34863 | 114.07239 | 12183 ft | 278 kts | 243° |
| 2026-04-23 04:59 | 4.34021 | 114.05499 | 11819 ft | 277 kts | 243° |
| 2026-04-23 04:59 | 4.33193 | 114.03786 | 11457 ft | 276 kts | 242° |
| 2026-04-23 04:59 | 4.32355 | 114.02053 | 11065 ft | 277 kts | 243° |
| 2026-04-23 04:59 | 4.31579 | 114.00290 | 10622 ft | 278 kts | 252° |
| 2026-04-23 05:00 | 4.31407 | 113.98367 | 10233 ft | 279 kts | 273° |
| 2026-04-23 05:00 | 4.31901 | 113.96499 | 9868 ft | 280 kts | 294° |
| 2026-04-23 05:00 | 4.33005 | 113.94904 | 9475 ft | 279 kts | 312° |
| 2026-04-23 05:00 | 4.34336 | 113.93497 | 9110 ft | 277 kts | 313° |
| 2026-04-23 05:01 | 4.35647 | 113.92121 | 8723 ft | 277 kts | 313° |
| 2026-04-23 05:01 | 4.37041 | 113.90769 | 8274 ft | 276 kts | 324° |
| 2026-04-23 05:01 | 4.38754 | 113.90006 | 7901 ft | 273 kts | 347° |
| 2026-04-23 05:01 | 4.40624 | 113.89917 | 7544 ft | 269 kts | 9° |
| 2026-04-23 05:02 | 4.42386 | 113.90483 | 7185 ft | 265 kts | 25° |
| 2026-04-23 05:02 | 4.44063 | 113.91255 | 6844 ft | 265 kts | 26° |
| 2026-04-23 05:02 | 4.45735 | 113.92025 | 6494 ft | 264 kts | 26° |
| 2026-04-23 05:02 | 4.47402 | 113.92784 | 6140 ft | 262 kts | 26° |
| 2026-04-23 05:03 | 4.49065 | 113.93541 | 5698 ft | 263 kts | 26° |
| 2026-04-23 05:03 | 4.50463 | 113.94603 | 5269 ft | 254 kts | 55° |
| 2026-04-23 05:03 | 4.51241 | 113.96157 | 4931 ft | 249 kts | 75° |
| 2026-04-23 05:03 | 4.51406 | 113.97836 | 4610 ft | 235 kts | 96° |
| 2026-04-23 05:04 | 4.51023 | 113.99351 | 4304 ft | 213 kts | 112° |
| 2026-04-23 05:04 | 4.50516 | 114.00682 | 4034 ft | 197 kts | 111° |
| 2026-04-23 05:04 | 4.50078 | 114.01891 | 3780 ft | 176 kts | 110° |
| 2026-04-23 05:04 | 4.49681 | 114.03004 | 3530 ft | 166 kts | 111° |
| 2026-04-23 05:05 | 4.49294 | 114.04051 | 3297 ft | 159 kts | 116° |
| 2026-04-23 05:05 | 4.48573 | 114.04871 | 3065 ft | 157 kts | 146° |
| 2026-04-23 05:05 | 4.47579 | 114.05307 | 2863 ft | 157 kts | 169° |
| 2026-04-23 05:05 | 4.46513 | 114.05291 | 2667 ft | 157 kts | 192° |
| 2026-04-23 05:06 | 4.45499 | 114.04874 | 2461 ft | 158 kts | 206° |
| 2026-04-23 05:06 | 4.44516 | 114.04410 | 2254 ft | 157 kts | 204° |
| 2026-04-23 05:06 | 4.43530 | 114.03954 | 2039 ft | 155 kts | 205° |
| 2026-04-23 05:06 | 4.42554 | 114.03502 | 1835 ft | 155 kts | 205° |
| 2026-04-23 05:07 | 4.41573 | 114.03048 | 1630 ft | 155 kts | 205° |
| 2026-04-23 05:07 | 4.40596 | 114.02593 | 1424 ft | 155 kts | 205° |
| 2026-04-23 05:07 | 4.39618 | 114.02139 | 1218 ft | 155 kts | 205° |
| 2026-04-23 05:07 | 4.38653 | 114.01690 | 1020 ft | 155 kts | 205° |
| 2026-04-23 05:08 | 4.37675 | 114.01237 | 826 ft | 154 kts | 206° |
| 2026-04-23 05:08 | 4.36737 | 114.00806 | 731 ft | 139 kts | 206° |
| 2026-04-23 05:08 | 4.35918 | 114.00429 | 673 ft | 122 kts | 207° |
| 2026-04-23 05:08 | 4.35163 | 114.00069 | 636 ft | 114 kts | 208° |
| 2026-04-23 05:09 | 4.34471 | 113.99741 | 486 ft | 108 kts | 206° |
| 2026-04-23 05:09 | 4.33831 | 113.99451 | 246 ft | 95 kts | 209° |
| 2026-04-23 05:09 | 4.33268 | 113.99187 | 82 ft | 86 kts | 207° |
| 2026-04-23 05:09 | 4.32753 | 113.98949 | 57 ft | 74 kts | 208° |
| 2026-04-23 05:10 | 4.32238 | 113.98707 | 117 ft | 96 kts | 206° |
| 2026-04-23 05:10 | 4.31585 | 113.98427 | 489 ft | 116 kts | 206° |
| 2026-04-23 05:10 | 4.30795 | 113.97958 | 852 ft | 147 kts | 229° |
| 2026-04-23 05:10 | 4.30033 | 113.97196 | 1373 ft | 162 kts | 218° |
| 2026-04-23 05:11 | 4.29206 | 113.96572 | 2455 ft | 139 kts | 217° |
| 2026-04-23 05:11 | 4.28435 | 113.95959 | 3182 ft | 145 kts | 216° |
| 2026-04-23 05:11 | 4.27658 | 113.95320 | 3980 ft | 145 kts | 217° |
| 2026-04-23 05:11 | 4.26883 | 113.94663 | 4751 ft | 147 kts | 217° |
| 2026-04-23 05:12 | 4.26110 | 113.93989 | 5504 ft | 149 kts | 217° |
| 2026-04-23 05:12 | 4.25334 | 113.93316 | 6248 ft | 151 kts | 217° |
| 2026-04-23 05:12 | 4.24534 | 113.92624 | 6966 ft | 153 kts | 218° |
| 2026-04-23 05:12 | 4.23722 | 113.91928 | 7709 ft | 153 kts | 219° |
| 2026-04-23 05:13 | 4.22900 | 113.91230 | 8406 ft | 157 kts | 219° |
| 2026-04-23 05:13 | 4.22052 | 113.90535 | 9166 ft | 158 kts | 218° |
| 2026-04-23 05:13 | 4.21142 | 113.89916 | 9879 ft | 160 kts | 195° |
| 2026-04-23 05:14 | 4.19961 | 113.90390 | 10717 ft | 158 kts | 125° |
| 2026-04-23 05:14 | 4.31159 | 113.98208 | 58 ft | 0 kts | 25° |
| 2026-04-23 05:15 | 4.31197 | 113.98225 | 57 ft | 30 kts | 24° |
| 2026-04-23 05:15 | 4.31615 | 113.98418 | 59 ft | 99 kts | 26° |
| 2026-04-23 05:15 | 4.32363 | 113.98771 | 280 ft | 133 kts | 20° |
| 2026-04-23 05:15 | 4.33258 | 113.99167 | 902 ft | 142 kts | 20° |
| 2026-04-23 05:16 | 4.34180 | 113.99535 | 1704 ft | 144 kts | 20° |
| 2026-04-23 05:16 | 4.35124 | 113.99881 | 2458 ft | 149 kts | 20° |
| 2026-04-23 05:16 | 4.36109 | 114.00221 | 3238 ft | 151 kts | 20° |
| 2026-04-23 05:16 | 4.37114 | 114.00551 | 4015 ft | 152 kts | 19° |
| 2026-04-23 05:17 | 4.38133 | 114.00877 | 4779 ft | 156 kts | 19° |
| 2026-04-23 05:17 | 4.39174 | 114.01205 | 5538 ft | 158 kts | 20° |
| 2026-04-23 05:17 | 4.40235 | 114.01535 | 6305 ft | 161 kts | 19° |
| 2026-04-23 05:17 | 4.41334 | 114.01533 | 7032 ft | 165 kts | 331° |
| 2026-04-23 05:18 | 4.41898 | 114.00607 | 7787 ft | 161 kts | 266° |
| 2026-04-23 05:18 | 4.41431 | 113.99644 | 8536 ft | 156 kts | 223° |
| 2026-04-23 05:18 | 4.40507 | 113.99173 | 9278 ft | 153 kts | 180° |
| 2026-04-23 05:18 | 4.39443 | 113.99232 | 10000 ft | 156 kts | 181° |
| 2026-04-23 05:19 | 4.38358 | 113.99106 | 10670 ft | 159 kts | 187° |
| 2026-04-23 05:19 | 4.37252 | 113.98934 | 11354 ft | 162 kts | 187° |
| 2026-04-23 05:19 | 4.36132 | 113.98754 | 12069 ft | 164 kts | 187° |
| 2026-04-23 05:19 | 4.34995 | 113.98570 | 12748 ft | 167 kts | 186° |
| 2026-04-23 05:20 | 4.33845 | 113.98384 | 13466 ft | 168 kts | 186° |
| 2026-04-23 05:20 | 4.32680 | 113.98202 | 14071 ft | 170 kts | 183° |
| 2026-04-23 05:20 | 4.31511 | 113.98333 | 14624 ft | 170 kts | 160° |
| 2026-04-23 05:20 | 4.30482 | 113.98883 | 15185 ft | 171 kts | 140° |
| 2026-04-23 05:21 | 4.29772 | 113.99825 | 15697 ft | 175 kts | 109° |
| 2026-04-23 05:21 | 4.29463 | 114.01008 | 16271 ft | 176 kts | 104° |
| 2026-04-23 05:21 | 4.29128 | 114.02205 | 16800 ft | 181 kts | 107° |
| 2026-04-23 05:21 | 4.28730 | 114.03400 | 17408 ft | 180 kts | 108° |
| 2026-04-23 05:22 | 4.28317 | 114.04609 | 17884 ft | 189 kts | 108° |
| 2026-04-23 05:22 | 4.27867 | 114.05929 | 18010 ft | 213 kts | 108° |
| 2026-04-23 05:22 | 4.27368 | 114.07390 | 18012 ft | 235 kts | 108° |
| 2026-04-23 05:22 | 4.26824 | 114.08984 | 18012 ft | 248 kts | 108° |
| 2026-04-23 05:23 | 4.26258 | 114.10648 | 18010 ft | 256 kts | 108° |
| 2026-04-23 05:23 | 4.25680 | 114.12347 | 18008 ft | 259 kts | 108° |
| 2026-04-23 05:23 | 4.25097 | 114.14060 | 18008 ft | 260 kts | 108° |
| 2026-04-23 05:23 | 4.24511 | 114.15782 | 18009 ft | 261 kts | 108° |
| 2026-04-23 05:24 | 4.23923 | 114.17510 | 18008 ft | 263 kts | 108° |
| 2026-04-23 05:24 | 4.23333 | 114.19242 | 18007 ft | 263 kts | 108° |
| 2026-04-23 05:24 | 4.22743 | 114.20974 | 18009 ft | 262 kts | 108° |
| 2026-04-23 05:24 | 4.22162 | 114.22681 | 18010 ft | 262 kts | 108° |
| 2026-04-23 05:25 | 4.21574 | 114.24410 | 18009 ft | 262 kts | 108° |
| 2026-04-23 05:25 | 4.20984 | 114.26142 | 18005 ft | 263 kts | 109° |
| 2026-04-23 05:25 | 4.20393 | 114.27876 | 18006 ft | 263 kts | 108° |
| 2026-04-23 05:25 | 4.19803 | 114.29608 | 18007 ft | 262 kts | 108° |
| 2026-04-23 05:26 | 4.19224 | 114.31336 | 18017 ft | 262 kts | 108° |
| 2026-04-23 05:26 | 4.18658 | 114.33068 | 18011 ft | 263 kts | 108° |
| 2026-04-23 05:26 | 4.18075 | 114.34847 | 17111 ft | 271 kts | 108° |
| 2026-04-23 05:26 | 4.17467 | 114.36677 | 15727 ft | 283 kts | 109° |
| 2026-04-23 05:27 | 4.16845 | 114.38552 | 14390 ft | 292 kts | 109° |
| 2026-04-23 05:27 | 4.16201 | 114.40498 | 13203 ft | 294 kts | 109° |
| 2026-04-23 05:27 | 4.15569 | 114.42417 | 12131 ft | 287 kts | 109° |
| 2026-04-23 05:27 | 4.14948 | 114.44297 | 11058 ft | 282 kts | 109° |
| 2026-04-23 05:28 | 4.14336 | 114.46145 | 10036 ft | 277 kts | 109° |
| 2026-04-23 05:28 | 4.13735 | 114.47963 | 8962 ft | 273 kts | 109° |
| 2026-04-23 05:28 | 4.13143 | 114.49751 | 7908 ft | 268 kts | 109° |
| 2026-04-23 05:28 | 4.12562 | 114.51508 | 7012 ft | 261 kts | 109° |
| 2026-04-23 05:29 | 4.12039 | 114.53093 | 6797 ft | 223 kts | 109° |
| 2026-04-23 05:29 | 4.11566 | 114.54525 | 6529 ft | 222 kts | 109° |
| 2026-04-23 05:29 | 4.11065 | 114.56035 | 6245 ft | 236 kts | 109° |
| 2026-04-23 05:29 | 4.10538 | 114.57624 | 5922 ft | 245 kts | 109° |
| 2026-04-23 05:30 | 4.09998 | 114.59259 | 5593 ft | 248 kts | 109° |
| 2026-04-23 05:30 | 4.09455 | 114.60901 | 5262 ft | 248 kts | 109° |
| 2026-04-23 05:30 | 4.08912 | 114.62542 | 4933 ft | 248 kts | 109° |
| 2026-04-23 05:30 | 4.08378 | 114.64156 | 4613 ft | 236 kts | 109° |
| 2026-04-23 05:31 | 4.07881 | 114.65659 | 4297 ft | 217 kts | 109° |
| 2026-04-23 05:31 | 4.07265 | 114.66945 | 4023 ft | 199 kts | 125° |
| 2026-04-23 05:31 | 4.06393 | 114.67920 | 3776 ft | 176 kts | 138° |
| 2026-04-23 05:31 | 4.05446 | 114.68658 | 3562 ft | 162 kts | 146° |
| 2026-04-23 05:32 | 4.04519 | 114.69162 | 3364 ft | 145 kts | 156° |
| 2026-04-23 05:32 | 4.03623 | 114.69450 | 3182 ft | 128 kts | 168° |
| 2026-04-23 05:32 | 4.02768 | 114.69537 | 2964 ft | 120 kts | 180° |
| 2026-04-23 05:32 | 4.01942 | 114.69459 | 2725 ft | 119 kts | 180° |
| 2026-04-23 05:33 | 4.01308 | 114.69911 | 2425 ft | 119 kts | 113° |
| 2026-04-23 05:33 | 4.00986 | 114.70671 | 2226 ft | 119 kts | 115° |
| 2026-04-23 05:33 | 4.00622 | 114.71429 | 2016 ft | 122 kts | 116° |
| 2026-04-23 05:33 | 4.00240 | 114.72154 | 1828 ft | 118 kts | 118° |
| 2026-04-23 05:34 | 3.99833 | 114.72901 | 1689 ft | 120 kts | 118° |
| 2026-04-23 05:34 | 3.99449 | 114.73594 | 1680 ft | 114 kts | 118° |
| 2026-04-23 05:34 | 3.99049 | 114.74315 | 1689 ft | 123 kts | 119° |
| 2026-04-23 05:34 | 3.98639 | 114.75066 | 1680 ft | 120 kts | 113° |
| 2026-04-23 05:35 | 3.98559 | 114.75872 | 1678 ft | 118 kts | 78° |
| 2026-04-23 05:35 | 3.98916 | 114.76633 | 1560 ft | 123 kts | 47° |
| 2026-04-23 05:35 | 3.99526 | 114.77089 | 1518 ft | 101 kts | 32° |
| 2026-04-23 05:35 | 4.00071 | 114.77470 | 1502 ft | 95 kts | 32° |
| 2026-04-23 05:36 | 4.00623 | 114.77853 | 1495 ft | 98 kts | 33° |
| 2026-04-23 05:36 | 4.01188 | 114.78256 | 1471 ft | 101 kts | 33° |
| 2026-04-23 05:36 | 4.01745 | 114.78663 | 1403 ft | 97 kts | 34° |
| 2026-04-23 05:36 | 4.02283 | 114.79052 | 1258 ft | 97 kts | 34° |
| 2026-04-23 05:37 | 4.02845 | 114.79436 | 1061 ft | 98 kts | 30° |
| 2026-04-23 05:37 | 4.03421 | 114.79818 | 762 ft | 100 kts | 32° |
| 2026-04-23 05:37 | 4.03999 | 114.80199 | 457 ft | 100 kts | 34° |
| 2026-04-23 05:37 | 4.04559 | 114.80593 | 168 ft | 96 kts | 30° |
| 2026-04-23 05:38 | 4.05067 | 114.80936 | 51 ft | 84 kts | 33° |
| 2026-04-23 05:38 | 4.05556 | 114.81275 | 208 ft | 94 kts | 30° |
| 2026-04-23 05:38 | 4.06210 | 114.81703 | 578 ft | 129 kts | 29° |
| 2026-04-23 05:38 | 4.07026 | 114.82213 | 1231 ft | 143 kts | 31° |
| 2026-04-23 05:39 | 4.07870 | 114.82738 | 2040 ft | 142 kts | 30° |
| 2026-04-23 05:39 | 4.08711 | 114.83274 | 2823 ft | 145 kts | 31° |
| 2026-04-23 05:39 | 4.09586 | 114.83803 | 3601 ft | 148 kts | 31° |
| 2026-04-23 05:39 | 4.10535 | 114.84224 | 4367 ft | 154 kts | 6° |
| 2026-04-23 05:40 | 4.11610 | 114.84123 | 5141 ft | 157 kts | 358° |
| 2026-04-23 05:40 | 4.12694 | 114.84127 | 5902 ft | 159 kts | 4° |
| 2026-04-23 05:40 | 4.13800 | 114.84182 | 6660 ft | 159 kts | 5° |
| 2026-04-23 05:40 | 4.14927 | 114.84246 | 7383 ft | 163 kts | 5° |
| 2026-04-23 05:41 | 4.16061 | 114.84312 | 8160 ft | 165 kts | 5° |
| 2026-04-23 05:41 | 4.17211 | 114.84381 | 8931 ft | 167 kts | 5° |
| 2026-04-23 05:41 | 4.18376 | 114.84451 | 9715 ft | 169 kts | 5° |
| 2026-04-23 05:41 | 4.19560 | 114.84520 | 10402 ft | 174 kts | 5° |
| 2026-04-23 05:42 | 4.20827 | 114.84597 | 10853 ft | 194 kts | 5° |
| 2026-04-23 05:42 | 4.22267 | 114.84686 | 11008 ft | 226 kts | 5° |
| 2026-04-23 05:42 | 4.23935 | 114.84787 | 11021 ft | 252 kts | 4° |
| 2026-04-23 05:42 | 4.25693 | 114.84890 | 11465 ft | 244 kts | 4° |
| 2026-04-23 05:43 | 4.27296 | 114.84981 | 12523 ft | 217 kts | 5° |
| 2026-04-23 05:43 | 4.28715 | 114.85063 | 13692 ft | 191 kts | 4° |
| 2026-04-23 05:43 | 4.29987 | 114.85183 | 14475 ft | 184 kts | 11° |
| 2026-04-23 05:43 | 4.31277 | 114.85313 | 14981 ft | 191 kts | 354° |
| 2026-04-23 05:44 | 4.32676 | 114.85158 | 14950 ft | 226 kts | 2° |
| 2026-04-23 05:44 | 4.34367 | 114.85294 | 14456 ft | 264 kts | 7° |
| 2026-04-23 05:44 | 4.36256 | 114.85484 | 13975 ft | 280 kts | 5° |
| 2026-04-23 05:44 | 4.38240 | 114.85558 | 13467 ft | 291 kts | 1° |
| 2026-04-23 05:45 | 4.40242 | 114.85600 | 12956 ft | 272 kts | 2° |
| 2026-04-23 05:45 | 4.42151 | 114.85673 | 12446 ft | 280 kts | 3° |
| 2026-04-23 05:45 | 4.44117 | 114.85739 | 11941 ft | 284 kts | 2° |
| 2026-04-23 05:45 | 4.46094 | 114.85791 | 11455 ft | 284 kts | 2° |
| 2026-04-23 05:46 | 4.48065 | 114.85844 | 10976 ft | 283 kts | 2° |
| 2026-04-23 05:46 | 4.50029 | 114.85901 | 10503 ft | 282 kts | 3° |
| 2026-04-23 05:46 | 4.51990 | 114.85960 | 10044 ft | 282 kts | 2° |
| 2026-04-23 05:46 | 4.53943 | 114.86015 | 9584 ft | 279 kts | 2° |
| 2026-04-23 05:47 | 4.55852 | 114.86069 | 9105 ft | 277 kts | 2° |
| 2026-04-23 05:47 | 4.57782 | 114.86125 | 8625 ft | 278 kts | 2° |
| 2026-04-23 05:47 | 4.59699 | 114.86180 | 8156 ft | 274 kts | 3° |
| 2026-04-23 05:47 | 4.61591 | 114.86234 | 7778 ft | 269 kts | 2° |
| 2026-04-23 05:48 | 4.63474 | 114.86289 | 7333 ft | 271 kts | 3° |
| 2026-04-23 05:48 | 4.65359 | 114.86343 | 6869 ft | 271 kts | 3° |
| 2026-04-23 05:48 | 4.67224 | 114.86396 | 6406 ft | 266 kts | 3° |
| 2026-04-23 05:48 | 4.69038 | 114.86449 | 5935 ft | 263 kts | 3° |
| 2026-04-23 05:49 | 4.70861 | 114.86501 | 5463 ft | 262 kts | 2° |
| 2026-04-23 05:49 | 4.72691 | 114.86554 | 5016 ft | 263 kts | 2° |
| 2026-04-23 05:49 | 4.74504 | 114.86607 | 4557 ft | 255 kts | 2° |
| 2026-04-23 05:49 | 4.76181 | 114.86654 | 4131 ft | 230 kts | 2° |
| 2026-04-23 05:50 | 4.77720 | 114.86697 | 3742 ft | 211 kts | 2° |
| 2026-04-23 05:50 | 4.79101 | 114.86737 | 3385 ft | 189 kts | 1° |
| 2026-04-23 05:50 | 4.80342 | 114.86775 | 3073 ft | 170 kts | 1° |
| 2026-04-23 05:50 | 4.81489 | 114.86808 | 2787 ft | 164 kts | 1° |
| 2026-04-23 05:51 | 4.82613 | 114.86840 | 2506 ft | 161 kts | 1° |
| 2026-04-23 05:51 | 4.83725 | 114.86872 | 2226 ft | 158 kts | 0° |
| 2026-04-23 05:51 | 4.84784 | 114.87081 | 2034 ft | 154 kts | 28° |
| 2026-04-23 05:51 | 4.85726 | 114.87619 | 2027 ft | 159 kts | 28° |
| 2026-04-23 05:52 | 4.86692 | 114.88174 | 2023 ft | 159 kts | 30° |
| 2026-04-23 05:52 | 4.87559 | 114.88695 | 2040 ft | 132 kts | 30° |
| 2026-04-23 05:52 | 4.88303 | 114.89141 | 2003 ft | 120 kts | 30° |
| 2026-04-23 05:52 | 4.88956 | 114.89527 | 1798 ft | 101 kts | 30° |
| 2026-04-23 05:53 | 4.89532 | 114.89891 | 1597 ft | 96 kts | 31° |
| 2026-04-23 05:53 | 4.90082 | 114.90245 | 1323 ft | 92 kts | 31° |
| 2026-04-23 05:53 | 4.90614 | 114.90593 | 1068 ft | 93 kts | 29° |
| 2026-04-23 05:53 | 4.91168 | 114.90918 | 798 ft | 93 kts | 25° |
| 2026-04-23 05:54 | 4.91727 | 114.91190 | 552 ft | 84 kts | 28° |
| 2026-04-23 05:54 | 4.92230 | 114.91515 | 309 ft | 88 kts | 26° |
| 2026-04-23 05:54 | 4.92746 | 114.91829 | 108 ft | 83 kts | 26° |
| 2026-04-23 05:54 | 4.93210 | 114.92105 | 28 ft | 73 kts | 25° |
| 2026-04-23 05:55 | 4.93611 | 114.92338 | 23 ft | 61 kts | 28° |
| 2026-04-23 05:55 | 4.93970 | 114.92539 | 29 ft | 54 kts | 30° |
| 2026-04-23 05:55 | 4.94068 | 114.92605 | 32 ft | 0 kts | 34° |
| 2026-04-23 05:56 | 4.31197 | 113.98109 | 54 ft | 0 kts | 115° |
| 2026-04-23 05:56 | 4.31159 | 113.98208 | 58 ft | 0 kts | 25° |